Terminal Aerodrome Forecast
Issued by NWS Sioux Falls, SD

Home | Current Version | Previous Version | Text Only | Print | Product List | Glossary On
Versions: 1 2 3 4 5 6 7 8 9 10 11 12 13 14 15 16 17
000
FTUS43 KFSD 231720
TAFFSD
TAF
KFSD 231720Z 2318/2418 15015G24KT P6SM SCT060 SCT250
     FM240100 15013KT P6SM FEW070 SCT250
     FM240700 17011KT P6SM BKN050 BKN200 WS014/20040KT
     FM241000 17009KT P6SM VCTS BKN050CB BKN200
     FM241300 17011KT P6SM BKN070=

USA.gov is the U.S. government's official web portal to all federal, state and local government web resources and services.